Terminal Aerodrome Forecast
Issued by NWS Anchorage, AK

Home | Current Version | Previous Version | Text Only | Print | Product List | Glossary On
Versions: 1 2 3 4 5 6 7 8 9 10 11 12 13 14 15 16 17 18 19 20 21 22 23 24 25 26 27 28 29 30 31 32 33 34 35 36 37 38 39 40 41 42 43 44 45 46 47 48 49 50
000
FTAK31 PANC 252124 AAB
TAFANC
TAF AMD
PANC 252124Z 2521/2624 18012G22KT P6SM VCSH OVC015
      TEMPO 2521/2522 -SHRA SCT015 BKN025
     FM252200 18012G22KT P6SM -SHRA SCT015 BKN025
     FM260400 17007G14KT P6SM VCSH SCT035 BKN080
     FM261200 16008KT P6SM SCT035 BKN120=

USA.gov is the U.S. government's official web portal to all federal, state and local government web resources and services.